createdAt,value
2023-05-06T00:01:03.943Z,15.00
2023-05-06T00:03:30.813Z,15.01
2023-05-06T00:06:02.953Z,14.97
2023-05-06T00:08:29.565Z,14.99
2023-05-06T00:10:56.401Z,14.96
2023-05-06T00:13:22.966Z,14.87
2023-05-06T00:15:49.558Z,14.88
2023-05-06T00:18:16.536Z,14.85
2023-05-06T00:20:43.409Z,14.81
2023-05-06T00:23:09.981Z,14.81
2023-05-06T00:25:36.600Z,14.77
2023-05-06T00:28:03.368Z,14.75
2023-05-06T00:30:30.000Z,14.72
2023-05-06T00:32:56.700Z,14.68
2023-05-06T00:35:23.345Z,14.68
2023-05-06T00:38:10.951Z,14.67
2023-05-06T00:40:37.574Z,14.60
2023-05-06T00:43:04.214Z,14.64
2023-05-06T00:45:31.096Z,14.57
2023-05-06T00:47:58.961Z,14.53
2023-05-06T00:50:28.369Z,14.56
2023-05-06T00:52:57.066Z,14.60
2023-05-06T00:55:24.364Z,14.60
2023-05-06T00:57:52.221Z,14.60
2023-05-06T01:00:20.280Z,14.57
2023-05-06T01:02:48.262Z,14.53
2023-05-06T01:05:21.113Z,14.50
2023-05-06T01:08:01.111Z,14.45
2023-05-06T01:10:48.987Z,14.39
2023-05-06T01:13:27.100Z,14.39
2023-05-06T01:15:55.899Z,14.31
2023-05-06T01:18:25.652Z,14.29
2023-05-06T01:20:54.704Z,14.26
2023-05-06T01:23:21.462Z,14.29
2023-05-06T01:25:48.213Z,14.29
2023-05-06T01:28:14.994Z,14.25
2023-05-06T01:31:05.421Z,14.20
2023-05-06T01:33:43.861Z,14.14
2023-05-06T01:36:30.610Z,14.09
2023-05-06T01:39:10.087Z,14.07
2023-05-06T01:41:42.108Z,14.06
2023-05-06T01:44:10.896Z,14.05
2023-05-06T01:46:37.695Z,14.07
2023-05-06T01:49:08.156Z,14.04
2023-05-06T01:51:34.982Z,14.02
2023-05-06T01:54:02.442Z,14.03
2023-05-06T01:56:30.394Z,14.01
2023-05-06T01:58:59.529Z,13.97
2023-05-06T02:01:26.966Z,13.95
2023-05-06T02:03:53.718Z,13.93
2023-05-06T02:06:20.375Z,13.89
2023-05-06T02:08:47.144Z,13.81
2023-05-06T02:11:13.735Z,13.79
2023-05-06T02:13:40.461Z,13.82
2023-05-06T02:16:08.955Z,13.79
2023-05-06T02:18:35.813Z,13.79
2023-05-06T02:21:03.359Z,13.78
2023-05-06T02:23:30.067Z,13.75
2023-05-06T02:25:58.115Z,13.69
2023-05-06T02:28:25.449Z,13.70
2023-05-06T02:30:56.555Z,13.64
2023-05-06T02:33:23.851Z,13.63
2023-05-06T02:35:51.629Z,13.57
2023-05-06T02:38:19.295Z,13.55
2023-05-06T02:40:45.925Z,13.51
2023-05-06T02:43:12.620Z,13.52
2023-05-06T02:45:39.440Z,13.50
2023-05-06T02:48:06.407Z,13.45
2023-05-06T02:50:33.883Z,13.39
2023-05-06T02:53:00.478Z,13.37
2023-05-06T02:55:27.159Z,13.35
2023-05-06T02:57:53.787Z,13.33
2023-05-06T03:00:21.043Z,13.35
2023-05-06T03:02:47.643Z,13.36
2023-05-06T03:05:14.295Z,13.37
2023-05-06T03:07:41.399Z,13.41
2023-05-06T03:10:08.309Z,13.37
2023-05-06T03:12:35.134Z,13.39
2023-05-06T03:15:04.394Z,13.32
2023-05-06T03:17:31.043Z,13.33
2023-05-06T03:19:57.716Z,13.26
2023-05-06T03:22:24.329Z,13.24
2023-05-06T03:24:50.959Z,13.20
2023-05-06T03:27:17.630Z,13.19
2023-05-06T03:29:44.235Z,13.17
2023-05-06T03:32:10.841Z,13.09
2023-05-06T03:34:37.514Z,13.11
2023-05-06T03:37:04.132Z,13.07
2023-05-06T03:39:30.941Z,13.03
2023-05-06T03:41:57.694Z,13.04
2023-05-06T03:44:24.388Z,13.03
2023-05-06T03:46:50.963Z,13.02
2023-05-06T03:49:17.590Z,12.99
2023-05-06T03:51:44.223Z,13.02
2023-05-06T03:54:11.027Z,13.04
2023-05-06T03:56:37.670Z,13.09
2023-05-06T03:59:04.260Z,13.12
2023-05-06T04:01:30.906Z,13.11
2023-05-06T04:03:57.678Z,13.12
2023-05-06T04:06:24.366Z,13.10
2023-05-06T04:08:50.983Z,13.16
2023-05-06T04:11:17.547Z,13.17
2023-05-06T04:13:44.334Z,13.13
2023-05-06T04:16:11.139Z,13.16
2023-05-06T04:18:37.854Z,13.17
2023-05-06T04:21:04.654Z,13.15
2023-05-06T04:23:31.352Z,13.15
2023-05-06T04:25:58.129Z,13.16
2023-05-06T04:28:24.812Z,13.17
2023-05-06T04:30:53.926Z,13.16
2023-05-06T04:33:24.096Z,13.13
2023-05-06T04:35:54.736Z,13.20
2023-05-06T04:38:25.937Z,13.22
2023-05-06T04:40:52.847Z,13.21
2023-05-06T04:43:19.720Z,13.24
2023-05-06T04:45:49.881Z,13.24
2023-05-06T04:48:22.060Z,13.25
2023-05-06T04:50:49.673Z,13.27
2023-05-06T04:53:16.819Z,13.32
2023-05-06T04:55:43.792Z,13.32
2023-05-06T04:58:13.310Z,13.34
2023-05-06T05:00:40.058Z,13.40
2023-05-06T05:03:06.734Z,13.53
2023-05-06T05:05:36.429Z,13.57
2023-05-06T05:08:03.197Z,13.62
2023-05-06T05:10:29.845Z,13.70
2023-05-06T05:12:56.545Z,13.76
2023-05-06T05:15:23.220Z,13.85
2023-05-06T05:17:51.184Z,13.92
2023-05-06T05:20:20.224Z,14.04
2023-05-06T05:22:46.822Z,14.05
2023-05-06T05:25:13.676Z,14.12
2023-05-06T05:27:42.277Z,14.20
2023-05-06T05:30:09.477Z,14.25
2023-05-06T05:32:36.344Z,14.31
2023-05-06T05:35:03.064Z,14.38
2023-05-06T05:37:29.733Z,14.50
2023-05-06T05:39:56.353Z,14.63
2023-05-06T05:42:22.991Z,14.74
2023-05-06T05:44:49.637Z,14.89
2023-05-06T05:47:16.378Z,15.00
2023-05-06T05:49:43.081Z,15.13
2023-05-06T05:52:10.373Z,15.28
2023-05-06T05:54:37.294Z,15.41
2023-05-06T05:57:04.030Z,15.50
2023-05-06T05:59:31.740Z,15.56
2023-05-06T06:01:58.593Z,15.63
2023-05-06T06:04:25.681Z,15.64
2023-05-06T06:06:52.386Z,15.71
2023-05-06T06:09:19.011Z,15.72
2023-05-06T06:11:45.624Z,15.74
2023-05-06T06:14:12.256Z,15.81
2023-05-06T06:16:39.050Z,15.82
2023-05-06T06:19:06.588Z,15.88
2023-05-06T06:21:33.382Z,15.93
2023-05-06T06:24:00.174Z,15.98
2023-05-06T06:26:26.818Z,16.03
2023-05-06T06:28:53.538Z,16.05
2023-05-06T06:31:20.140Z,16.10
2023-05-06T06:33:46.753Z,16.11
2023-05-06T06:36:13.377Z,16.12
2023-05-06T06:38:41.555Z,16.15
2023-05-06T06:41:08.162Z,16.17
2023-05-06T06:43:34.772Z,16.22
2023-05-06T06:46:01.550Z,16.30
2023-05-06T06:48:28.284Z,16.39
2023-05-06T06:50:54.948Z,16.46
2023-05-06T06:53:21.587Z,16.54
2023-05-06T06:55:50.386Z,16.63
2023-05-06T06:58:16.990Z,16.65
2023-05-06T07:00:43.564Z,16.75
2023-05-06T07:03:10.252Z,16.81
2023-05-06T07:05:36.930Z,16.86
2023-05-06T07:08:03.597Z,16.90
2023-05-06T07:10:30.286Z,16.92
2023-05-06T07:12:58.369Z,16.98
2023-05-06T07:15:25.270Z,17.06
2023-05-06T07:17:51.949Z,17.14
2023-05-06T07:20:18.711Z,17.23
2023-05-06T07:22:45.983Z,17.34
2023-05-06T07:25:13.112Z,17.41
2023-05-06T07:27:39.973Z,17.49
2023-05-06T07:30:07.324Z,17.58
2023-05-06T07:32:34.090Z,17.65
2023-05-06T07:35:00.850Z,17.76
2023-05-06T07:37:27.488Z,17.87
2023-05-06T07:39:54.208Z,18.01
2023-05-06T07:42:20.816Z,18.13
2023-05-06T07:44:47.483Z,18.23
2023-05-06T07:47:27.595Z,18.27
2023-05-06T07:49:55.017Z,18.33
2023-05-06T07:52:22.834Z,18.37
2023-05-06T07:54:49.488Z,18.40
2023-05-06T07:57:16.871Z,18.41
2023-05-06T07:59:44.572Z,18.44
2023-05-06T08:02:11.207Z,18.44
2023-05-06T08:04:40.884Z,18.46
2023-05-06T08:07:07.555Z,18.45
2023-05-06T08:09:34.305Z,18.49
2023-05-06T08:12:00.976Z,18.50
2023-05-06T08:14:27.695Z,18.51
2023-05-06T08:16:54.781Z,18.51
2023-05-06T08:19:21.542Z,18.50
2023-05-06T08:21:48.809Z,18.49
2023-05-06T08:24:15.500Z,18.48
2023-05-06T08:26:42.170Z,18.49
2023-05-06T08:29:08.740Z,18.48
2023-05-06T08:31:35.501Z,18.48
2023-05-06T08:34:02.161Z,18.48
2023-05-06T08:36:28.764Z,18.46
2023-05-06T08:38:55.409Z,18.45
2023-05-06T08:41:22.273Z,18.46
2023-05-06T08:43:50.390Z,18.55
2023-05-06T08:46:18.095Z,18.58
2023-05-06T08:48:45.478Z,18.67
2023-05-06T08:51:15.413Z,18.71
2023-05-06T08:53:49.086Z,18.75
2023-05-06T08:56:16.871Z,18.80
2023-05-06T08:58:46.693Z,18.87
2023-05-06T09:01:15.107Z,18.92
2023-05-06T09:03:41.897Z,18.91
2023-05-06T09:06:08.655Z,19.00
2023-05-06T09:08:36.255Z,19.05
2023-05-06T09:11:03.152Z,19.03
2023-05-06T09:13:30.317Z,18.96
2023-05-06T09:15:57.046Z,18.90
2023-05-06T09:18:23.854Z,18.88
2023-05-06T09:20:50.599Z,18.87
2023-05-06T09:23:18.319Z,18.87
2023-05-06T09:25:47.052Z,18.84
2023-05-06T09:28:14.581Z,18.83
2023-05-06T09:30:45.677Z,18.82
2023-05-06T09:33:12.612Z,18.81
2023-05-06T09:35:42.126Z,18.82
2023-05-06T09:38:09.586Z,18.81
2023-05-06T09:40:37.177Z,18.80
2023-05-06T09:43:04.889Z,18.79
2023-05-06T09:45:31.774Z,18.77
2023-05-06T09:47:59.370Z,18.78
2023-05-06T09:50:26.828Z,18.79
2023-05-06T09:52:55.281Z,18.78
2023-05-06T09:55:23.483Z,18.79
2023-05-06T09:57:50.483Z,18.79
2023-05-06T10:00:17.739Z,18.81
2023-05-06T10:02:45.890Z,18.81
2023-05-06T10:05:13.604Z,18.80
2023-05-06T10:07:42.396Z,18.82
2023-05-06T10:10:11.599Z,18.81
2023-05-06T10:12:38.994Z,18.82
2023-05-06T10:15:06.603Z,18.83
2023-05-06T10:17:35.644Z,18.86
2023-05-06T10:20:04.785Z,19.00
2023-05-06T10:22:40.396Z,19.08
2023-05-06T10:25:14.611Z,19.16
2023-05-06T10:27:44.378Z,19.25
2023-05-06T10:30:14.078Z,19.33
2023-05-06T10:32:43.219Z,19.38
2023-05-06T10:35:22.771Z,19.43
2023-05-06T10:37:51.761Z,19.49
2023-05-06T10:40:19.252Z,19.54
2023-05-06T10:42:45.913Z,19.57
2023-05-06T10:45:15.366Z,19.61
2023-05-06T10:47:57.828Z,19.69
2023-05-06T10:50:26.301Z,19.74
2023-05-06T10:52:57.849Z,19.80
2023-05-06T10:55:42.543Z,19.80
2023-05-06T10:58:16.347Z,19.79
2023-05-06T11:00:54.476Z,19.74
2023-05-06T11:03:23.877Z,19.71
2023-05-06T11:05:52.247Z,19.71
2023-05-06T11:08:28.032Z,19.73
2023-05-06T11:10:54.926Z,19.75
2023-05-06T11:13:29.193Z,19.77
2023-05-06T11:15:57.112Z,19.82
2023-05-06T11:18:32.031Z,19.84
2023-05-06T11:21:02.450Z,19.87
2023-05-06T11:23:49.552Z,19.92
2023-05-06T11:26:16.759Z,19.98
2023-05-06T11:28:45.060Z,20.04
2023-05-06T11:31:13.341Z,20.11
2023-05-06T11:33:47.124Z,20.26
2023-05-06T11:36:20.756Z,20.32
2023-05-06T11:38:52.793Z,20.43
2023-05-06T11:41:20.073Z,20.51
2023-05-06T11:43:47.705Z,20.60
2023-05-06T11:46:14.330Z,20.48
2023-05-06T11:48:40.896Z,20.48
2023-05-06T11:51:08.382Z,20.44
2023-05-06T11:53:35.222Z,20.45
2023-05-06T11:56:02.130Z,20.49
2023-05-06T11:58:31.680Z,20.50
2023-05-06T12:01:00.619Z,20.50
2023-05-06T12:03:29.354Z,20.55
2023-05-06T12:05:56.503Z,20.55
2023-05-06T12:08:27.837Z,20.59
2023-05-06T12:11:02.727Z,20.65
2023-05-06T12:13:30.109Z,20.65
2023-05-06T12:15:59.323Z,20.71
2023-05-06T12:18:26.728Z,20.75
2023-05-06T12:20:57.635Z,20.80
2023-05-06T12:23:24.302Z,20.85
2023-05-06T12:26:01.386Z,20.92
2023-05-06T12:28:28.099Z,20.94
2023-05-06T12:30:54.680Z,20.95
2023-05-06T12:33:21.548Z,20.94
2023-05-06T12:35:48.984Z,21.00
2023-05-06T12:38:17.071Z,21.02
2023-05-06T12:40:52.627Z,21.03
2023-05-06T12:43:19.251Z,21.09
2023-05-06T12:46:03.564Z,21.13
2023-05-06T12:48:30.372Z,21.12
2023-05-06T12:50:57.131Z,21.16
2023-05-06T12:53:35.641Z,21.14
2023-05-06T12:56:02.266Z,21.15
2023-05-06T12:58:28.881Z,21.15
2023-05-06T13:00:55.492Z,21.16
2023-05-06T13:03:22.141Z,21.16
2023-05-06T13:05:50.387Z,21.14
2023-05-06T13:08:17.069Z,21.16
2023-05-06T13:10:43.750Z,21.18
2023-05-06T13:13:10.430Z,21.25
2023-05-06T13:15:37.391Z,21.29
2023-05-06T13:18:04.291Z,21.27
2023-05-06T13:20:32.397Z,21.25
2023-05-06T13:22:59.390Z,21.21
2023-05-06T13:25:26.022Z,21.20
2023-05-06T13:27:53.225Z,21.21
2023-05-06T13:30:19.937Z,21.19
2023-05-06T13:32:47.260Z,21.19
2023-05-06T13:35:13.896Z,21.14
2023-05-06T13:37:40.610Z,21.21
2023-05-06T13:40:08.747Z,21.23
2023-05-06T13:42:36.456Z,21.24
2023-05-06T13:45:03.171Z,21.26
2023-05-06T13:47:29.799Z,21.29
2023-05-06T13:49:56.388Z,21.29
2023-05-06T13:52:25.315Z,21.34
2023-05-06T13:54:52.030Z,21.35
2023-05-06T13:57:19.069Z,21.35
2023-05-06T13:59:45.924Z,21.39
2023-05-06T14:02:13.010Z,21.46
2023-05-06T14:04:39.848Z,21.51
2023-05-06T14:07:07.620Z,21.53
2023-05-06T14:09:34.380Z,21.55
2023-05-06T14:12:01.492Z,21.54
2023-05-06T14:14:28.259Z,21.54
2023-05-06T14:16:55.720Z,21.53
2023-05-06T14:19:22.384Z,21.52
2023-05-06T14:21:49.057Z,21.49
2023-05-06T14:24:18.123Z,21.47
2023-05-06T14:26:46.155Z,21.43
2023-05-06T14:29:12.877Z,21.38
2023-05-06T14:31:39.501Z,21.33
2023-05-06T14:34:06.145Z,21.30
2023-05-06T14:36:32.805Z,21.21
2023-05-06T14:38:59.492Z,21.04
2023-05-06T14:41:27.353Z,20.94
2023-05-06T14:43:54.073Z,20.85
2023-05-06T14:46:21.068Z,20.70
2023-05-06T14:48:47.724Z,20.56
2023-05-06T14:51:14.350Z,20.48
2023-05-06T14:53:41.382Z,20.33
2023-05-06T14:56:10.340Z,20.23
2023-05-06T14:58:37.233Z,20.15
2023-05-06T15:01:03.892Z,20.06
2023-05-06T15:03:30.632Z,20.01
2023-05-06T15:05:57.374Z,19.95
2023-05-06T15:08:24.157Z,19.90
2023-05-06T15:10:53.716Z,19.91
2023-05-06T15:13:20.489Z,19.91
2023-05-06T15:15:50.280Z,19.92
2023-05-06T15:18:17.046Z,19.88
2023-05-06T15:20:46.644Z,19.85
2023-05-06T15:23:13.252Z,19.84
2023-05-06T15:25:40.000Z,19.77
2023-05-06T15:28:06.780Z,19.68
2023-05-06T15:30:36.197Z,19.61
2023-05-06T15:33:02.998Z,19.60
2023-05-06T15:35:33.326Z,19.57
2023-05-06T15:38:03.297Z,19.54
2023-05-06T15:40:30.128Z,19.49
2023-05-06T15:42:58.192Z,19.49
2023-05-06T15:45:27.689Z,19.51
2023-05-06T15:47:55.579Z,19.53
2023-05-06T15:50:32.479Z,19.47
2023-05-06T15:53:01.641Z,19.43
2023-05-06T15:55:35.073Z,19.43
2023-05-06T15:58:08.108Z,19.39
2023-05-06T16:00:34.788Z,19.45
2023-05-06T16:03:01.566Z,19.45
2023-05-06T16:05:28.189Z,19.49
2023-05-06T16:07:56.009Z,19.48
2023-05-06T16:10:22.824Z,19.46
2023-05-06T16:12:52.571Z,19.41
2023-05-06T16:15:19.600Z,19.41
2023-05-06T16:17:46.269Z,19.41
2023-05-06T16:20:13.255Z,19.38
2023-05-06T16:22:40.521Z,19.37
2023-05-06T16:25:07.419Z,19.30
2023-05-06T16:27:34.059Z,19.33
2023-05-06T16:30:01.060Z,19.33
2023-05-06T16:32:27.908Z,19.30
2023-05-06T16:34:54.764Z,19.28
2023-05-06T16:37:21.439Z,19.18
2023-05-06T16:39:48.050Z,19.10
2023-05-06T16:42:14.601Z,19.08
2023-05-06T16:44:41.228Z,19.08
2023-05-06T16:47:07.940Z,19.05
2023-05-06T16:49:34.624Z,19.02
2023-05-06T16:52:01.383Z,18.92
2023-05-06T16:54:28.065Z,18.84
2023-05-06T16:56:54.860Z,18.79
2023-05-06T16:59:22.429Z,18.78
2023-05-06T17:01:49.901Z,18.67
2023-05-06T17:04:16.872Z,18.66
2023-05-06T17:06:43.523Z,18.62
2023-05-06T17:09:10.993Z,18.60
2023-05-06T17:11:37.699Z,18.63
2023-05-06T17:14:04.358Z,18.67
2023-05-06T17:16:31.086Z,18.68
2023-05-06T17:18:57.724Z,18.61
2023-05-06T17:21:25.109Z,18.48
2023-05-06T17:23:54.444Z,18.44
2023-05-06T17:26:21.690Z,18.33
2023-05-06T17:28:48.463Z,18.23
2023-05-06T17:31:17.594Z,18.12
2023-05-06T17:33:45.301Z,18.08
2023-05-06T17:36:13.701Z,18.09
2023-05-06T17:38:40.309Z,18.08
2023-05-06T17:41:06.905Z,18.05
2023-05-06T17:43:34.227Z,17.97
2023-05-06T17:46:01.221Z,18.00
2023-05-06T17:48:27.845Z,17.96
2023-05-06T17:50:55.762Z,17.92
2023-05-06T17:53:23.110Z,17.90
2023-05-06T17:55:49.667Z,17.88
2023-05-06T17:58:17.412Z,17.81
2023-05-06T18:00:44.162Z,17.79
2023-05-06T18:03:11.467Z,17.81
2023-05-06T18:05:38.184Z,17.73
2023-05-06T18:08:04.940Z,17.72
2023-05-06T18:10:31.570Z,17.69
2023-05-06T18:12:58.392Z,17.66
2023-05-06T18:15:26.011Z,17.61
2023-05-06T18:17:52.742Z,17.58
2023-05-06T18:20:19.444Z,17.57
2023-05-06T18:22:46.475Z,17.47
2023-05-06T18:25:13.197Z,17.43
2023-05-06T18:27:40.098Z,17.48
2023-05-06T18:30:07.412Z,17.51
2023-05-06T18:32:34.814Z,17.48
2023-05-06T18:35:01.673Z,17.42
2023-05-06T18:37:29.226Z,17.31
2023-05-06T18:39:55.984Z,17.24
2023-05-06T18:42:23.005Z,17.28
2023-05-06T18:44:52.710Z,17.22
2023-05-06T18:47:19.879Z,17.17
2023-05-06T18:49:46.466Z,17.10
2023-05-06T18:52:14.950Z,17.11
2023-05-06T18:54:41.799Z,17.10
2023-05-06T18:57:08.523Z,17.05
2023-05-06T18:59:35.157Z,17.03
2023-05-06T19:02:03.718Z,17.00
2023-05-06T19:04:31.516Z,16.96
2023-05-06T19:06:58.227Z,16.88
2023-05-06T19:09:24.831Z,16.86
2023-05-06T19:11:51.416Z,16.82
2023-05-06T19:14:18.094Z,16.82
2023-05-06T19:16:45.144Z,16.85
2023-05-06T19:19:11.856Z,16.86
2023-05-06T19:21:38.541Z,16.88
2023-05-06T19:24:06.520Z,16.83
2023-05-06T19:26:33.169Z,16.75
2023-05-06T19:28:59.812Z,16.79
2023-05-06T19:31:26.574Z,16.78
2023-05-06T19:33:53.281Z,16.76
2023-05-06T19:36:19.976Z,16.77
2023-05-06T19:38:46.556Z,16.79
2023-05-06T19:41:13.471Z,16.72
2023-05-06T19:43:43.998Z,16.67
2023-05-06T19:46:11.793Z,16.61
2023-05-06T19:48:41.691Z,16.61
2023-05-06T19:51:08.539Z,16.60
2023-05-06T19:53:36.220Z,16.60
2023-05-06T19:56:12.998Z,16.64
2023-05-06T19:58:39.807Z,16.69
2023-05-06T20:01:06.599Z,16.68
2023-05-06T20:03:33.578Z,16.68
2023-05-06T20:06:00.708Z,16.66
2023-05-06T20:08:27.481Z,16.59
2023-05-06T20:10:54.395Z,16.54
2023-05-06T20:13:21.113Z,16.49
2023-05-06T20:15:48.885Z,16.54
2023-05-06T20:18:15.794Z,16.53
2023-05-06T20:20:43.433Z,16.56
2023-05-06T20:23:10.150Z,16.51
2023-05-06T20:25:37.361Z,16.52
2023-05-06T20:28:06.654Z,16.52
2023-05-06T20:30:33.933Z,16.55
2023-05-06T20:33:01.165Z,16.53
2023-05-06T20:35:28.014Z,16.52
2023-05-06T20:37:55.801Z,16.44
2023-05-06T20:40:22.492Z,16.43
2023-05-06T20:42:49.173Z,16.41
2023-05-06T20:45:16.030Z,16.32
2023-05-06T20:47:42.790Z,16.33
2023-05-06T20:50:16.431Z,16.27
2023-05-06T20:52:47.258Z,16.24
2023-05-06T20:55:16.616Z,16.20
2023-05-06T20:57:44.377Z,16.16
2023-05-06T21:00:11.638Z,16.12
2023-05-06T21:02:41.153Z,16.12
2023-05-06T21:05:09.374Z,16.09
2023-05-06T21:07:36.396Z,16.09
2023-05-06T21:10:05.741Z,16.08
2023-05-06T21:12:33.398Z,16.00
2023-05-06T21:15:00.979Z,16.01
2023-05-06T21:17:28.719Z,15.95
2023-05-06T21:19:55.539Z,15.94
2023-05-06T21:22:23.442Z,15.95
2023-05-06T21:24:50.838Z,15.99
2023-05-06T21:27:17.564Z,15.92
2023-05-06T21:29:44.206Z,15.81
2023-05-06T21:32:10.975Z,15.73
2023-05-06T21:34:37.754Z,15.66
2023-05-06T21:37:04.401Z,15.63
2023-05-06T21:39:31.183Z,15.66
2023-05-06T21:41:57.875Z,15.66
2023-05-06T21:44:24.491Z,15.64
2023-05-06T21:46:51.367Z,15.57
2023-05-06T21:49:19.526Z,15.61
2023-05-06T21:51:46.176Z,15.60
2023-05-06T21:54:12.980Z,15.61
2023-05-06T21:56:39.685Z,15.55
2023-05-06T21:59:07.893Z,15.57
2023-05-06T22:01:36.349Z,15.55
2023-05-06T22:04:04.933Z,15.54
2023-05-06T22:06:31.628Z,15.54
2023-05-06T22:08:58.203Z,15.51
2023-05-06T22:11:24.922Z,15.44
2023-05-06T22:13:51.898Z,15.38
2023-05-06T22:16:18.655Z,15.43
2023-05-06T22:18:45.281Z,15.45
2023-05-06T22:21:11.946Z,15.42
2023-05-06T22:23:40.535Z,15.44
2023-05-06T22:26:07.256Z,15.40
2023-05-06T22:28:34.122Z,15.42
2023-05-06T22:31:00.750Z,15.37
2023-05-06T22:33:27.435Z,15.39
2023-05-06T22:35:55.420Z,15.39
2023-05-06T22:38:22.081Z,15.37
2023-05-06T22:40:48.778Z,15.38
2023-05-06T22:43:15.510Z,15.35
2023-05-06T22:45:42.251Z,15.35
2023-05-06T22:48:08.981Z,15.22
2023-05-06T22:50:36.457Z,15.16
2023-05-06T22:53:13.573Z,15.18
2023-05-06T22:55:41.901Z,15.17
2023-05-06T22:58:08.500Z,15.12
2023-05-06T23:00:35.168Z,15.03
2023-05-06T23:03:01.971Z,15.04
2023-05-06T23:05:28.687Z,15.01
2023-05-06T23:07:55.303Z,15.00
2023-05-06T23:10:21.908Z,14.96
2023-05-06T23:12:48.615Z,14.93
2023-05-06T23:15:15.328Z,14.93
2023-05-06T23:17:42.072Z,14.89
2023-05-06T23:20:09.059Z,14.92
2023-05-06T23:22:35.774Z,14.92
2023-05-06T23:25:02.401Z,14.91
2023-05-06T23:27:28.998Z,14.90
2023-05-06T23:29:55.992Z,14.92
2023-05-06T23:32:22.578Z,14.93
2023-05-06T23:34:49.592Z,14.96
2023-05-06T23:37:17.585Z,14.91
2023-05-06T23:39:44.351Z,14.86
2023-05-06T23:42:11.226Z,14.80
2023-05-06T23:44:37.764Z,14.75
2023-05-06T23:47:04.421Z,14.73
2023-05-06T23:49:31.851Z,14.72
2023-05-06T23:51:58.466Z,14.66
2023-05-06T23:54:25.143Z,14.67
2023-05-06T23:56:51.772Z,14.62
2023-05-06T23:59:18.436Z,14.55
